sensor_id;sensor_type;location;lat;lon;timestamp;P1;durP1;ratioP1;P2;durP2;ratioP2
24147;SDS011;12309;51.450;-2.624;2023-11-19T00:02:11;30.57;;;5.23;;
24147;SDS011;12309;51.450;-2.624;2023-11-19T00:04:37;32.17;;;5.10;;
24147;SDS011;12309;51.450;-2.624;2023-11-19T00:07:06;45.90;;;5.77;;
24147;SDS011;12309;51.450;-2.624;2023-11-19T00:09:35;28.77;;;4.03;;
24147;SDS011;12309;51.450;-2.624;2023-11-19T00:12:02;29.37;;;5.07;;
24147;SDS011;12309;51.450;-2.624;2023-11-19T00:14:29;32.87;;;4.97;;
24147;SDS011;12309;51.450;-2.624;2023-11-19T00:16:55;28.67;;;4.80;;
24147;SDS011;12309;51.450;-2.624;2023-11-19T00:19:21;32.47;;;4.93;;
24147;SDS011;12309;51.450;-2.624;2023-11-19T00:21:46;27.57;;;5.00;;
24147;SDS011;12309;51.450;-2.624;2023-11-19T00:24:12;34.87;;;5.17;;
24147;SDS011;12309;51.450;-2.624;2023-11-19T00:26:40;20.23;;;3.77;;
24147;SDS011;12309;51.450;-2.624;2023-11-19T00:29:07;33.07;;;4.87;;
24147;SDS011;12309;51.450;-2.624;2023-11-19T00:31:32;20.07;;;4.13;;
24147;SDS011;12309;51.450;-2.624;2023-11-19T00:33:58;31.97;;;4.53;;
24147;SDS011;12309;51.450;-2.624;2023-11-19T00:36:24;32.97;;;5.03;;
24147;SDS011;12309;51.450;-2.624;2023-11-19T00:38:50;34.83;;;5.60;;
24147;SDS011;12309;51.450;-2.624;2023-11-19T00:41:17;34.87;;;6.07;;
24147;SDS011;12309;51.450;-2.624;2023-11-19T00:43:43;27.97;;;5.17;;
24147;SDS011;12309;51.450;-2.624;2023-11-19T00:46:09;33.43;;;5.70;;
24147;SDS011;12309;51.450;-2.624;2023-11-19T00:48:36;35.37;;;5.90;;
24147;SDS011;12309;51.450;-2.624;2023-11-19T00:51:02;39.43;;;4.97;;
24147;SDS011;12309;51.450;-2.624;2023-11-19T00:53:29;42.58;;;5.32;;
24147;SDS011;12309;51.450;-2.624;2023-11-19T00:55:55;31.10;;;5.43;;
24147;SDS011;12309;51.450;-2.624;2023-11-19T00:58:21;23.90;;;4.17;;
24147;SDS011;12309;51.450;-2.624;2023-11-19T01:00:47;27.37;;;4.30;;
24147;SDS011;12309;51.450;-2.624;2023-11-19T01:03:12;29.00;;;4.70;;
24147;SDS011;12309;51.450;-2.624;2023-11-19T01:05:39;36.77;;;4.83;;
24147;SDS011;12309;51.450;-2.624;2023-11-19T01:08:05;27.70;;;4.10;;
24147;SDS011;12309;51.450;-2.624;2023-11-19T01:10:31;25.23;;;4.10;;
24147;SDS011;12309;51.450;-2.624;2023-11-19T01:12:57;37.47;;;4.80;;
24147;SDS011;12309;51.450;-2.624;2023-11-19T01:15:22;26.70;;;4.30;;
24147;SDS011;12309;51.450;-2.624;2023-11-19T01:17:48;36.83;;;5.53;;
24147;SDS011;12309;51.450;-2.624;2023-11-19T01:20:14;25.33;;;4.57;;
24147;SDS011;12309;51.450;-2.624;2023-11-19T01:22:39;22.13;;;4.10;;
24147;SDS011;12309;51.450;-2.624;2023-11-19T01:25:06;26.33;;;4.83;;
24147;SDS011;12309;51.450;-2.624;2023-11-19T01:27:32;30.93;;;4.63;;
24147;SDS011;12309;51.450;-2.624;2023-11-19T01:29:59;23.50;;;4.67;;
24147;SDS011;12309;51.450;-2.624;2023-11-19T01:32:28;29.63;;;4.40;;
24147;SDS011;12309;51.450;-2.624;2023-11-19T01:34:53;27.57;;;4.17;;
24147;SDS011;12309;51.450;-2.624;2023-11-19T01:37:19;19.10;;;2.83;;
24147;SDS011;12309;51.450;-2.624;2023-11-19T01:39:45;38.77;;;4.17;;
24147;SDS011;12309;51.450;-2.624;2023-11-19T01:42:11;33.20;;;4.47;;
24147;SDS011;12309;51.450;-2.624;2023-11-19T01:44:40;30.87;;;5.03;;
24147;SDS011;12309;51.450;-2.624;2023-11-19T01:47:06;31.87;;;4.27;;
24147;SDS011;12309;51.450;-2.624;2023-11-19T01:49:33;21.27;;;2.93;;
24147;SDS011;12309;51.450;-2.624;2023-11-19T01:51:59;17.77;;;3.67;;
24147;SDS011;12309;51.450;-2.624;2023-11-19T01:54:26;34.80;;;5.43;;
24147;SDS011;12309;51.450;-2.624;2023-11-19T01:56:53;37.73;;;5.17;;
24147;SDS011;12309;51.450;-2.624;2023-11-19T01:59:21;30.97;;;4.30;;
24147;SDS011;12309;51.450;-2.624;2023-11-19T02:01:51;31.87;;;4.77;;
24147;SDS011;12309;51.450;-2.624;2023-11-19T02:04:20;35.13;;;4.50;;
24147;SDS011;12309;51.450;-2.624;2023-11-19T02:06:46;32.00;;;4.93;;
24147;SDS011;12309;51.450;-2.624;2023-11-19T02:09:14;27.07;;;5.27;;
24147;SDS011;12309;51.450;-2.624;2023-11-19T02:11:44;22.33;;;4.03;;
24147;SDS011;12309;51.450;-2.624;2023-11-19T02:14:10;29.27;;;4.70;;
24147;SDS011;12309;51.450;-2.624;2023-11-19T02:16:36;24.53;;;3.87;;
24147;SDS011;12309;51.450;-2.624;2023-11-19T02:19:01;26.93;;;4.50;;
24147;SDS011;12309;51.450;-2.624;2023-11-19T02:21:28;34.67;;;5.07;;
24147;SDS011;12309;51.450;-2.624;2023-11-19T02:23:54;30.33;;;4.43;;
24147;SDS011;12309;51.450;-2.624;2023-11-19T02:26:29;26.27;;;4.03;;
24147;SDS011;12309;51.450;-2.624;2023-11-19T02:29:01;24.83;;;3.53;;
24147;SDS011;12309;51.450;-2.624;2023-11-19T02:31:28;23.73;;;4.03;;
24147;SDS011;12309;51.450;-2.624;2023-11-19T02:33:54;26.67;;;4.47;;
24147;SDS011;12309;51.450;-2.624;2023-11-19T02:36:20;25.90;;;3.97;;
24147;SDS011;12309;51.450;-2.624;2023-11-19T02:38:46;29.13;;;4.60;;
24147;SDS011;12309;51.450;-2.624;2023-11-19T02:41:13;31.60;;;4.63;;
24147;SDS011;12309;51.450;-2.624;2023-11-19T02:43:39;29.53;;;4.50;;
24147;SDS011;12309;51.450;-2.624;2023-11-19T02:46:05;24.87;;;4.73;;
24147;SDS011;12309;51.450;-2.624;2023-11-19T02:48:32;27.40;;;5.23;;
24147;SDS011;12309;51.450;-2.624;2023-11-19T02:51:00;26.17;;;3.40;;
24147;SDS011;12309;51.450;-2.624;2023-11-19T02:53:28;27.80;;;3.37;;
24147;SDS011;12309;51.450;-2.624;2023-11-19T02:55:56;31.97;;;3.87;;
24147;SDS011;12309;51.450;-2.624;2023-11-19T02:58:31;14.80;;;2.70;;
24147;SDS011;12309;51.450;-2.624;2023-11-19T03:00:56;40.30;;;5.10;;
24147;SDS011;12309;51.450;-2.624;2023-11-19T03:03:25;31.57;;;4.17;;
24147;SDS011;12309;51.450;-2.624;2023-11-19T03:06:04;33.80;;;5.07;;
24147;SDS011;12309;51.450;-2.624;2023-11-19T03:08:30;34.10;;;5.03;;
24147;SDS011;12309;51.450;-2.624;2023-11-19T03:10:55;27.00;;;3.57;;
24147;SDS011;12309;51.450;-2.624;2023-11-19T03:13:21;30.93;;;4.93;;
24147;SDS011;12309;51.450;-2.624;2023-11-19T03:15:47;29.30;;;4.60;;
24147;SDS011;12309;51.450;-2.624;2023-11-19T03:18:13;21.53;;;3.10;;
24147;SDS011;12309;51.450;-2.624;2023-11-19T03:20:38;31.53;;;4.23;;
24147;SDS011;12309;51.450;-2.624;2023-11-19T03:23:05;26.10;;;4.57;;
24147;SDS011;12309;51.450;-2.624;2023-11-19T03:25:31;25.03;;;3.80;;
24147;SDS011;12309;51.450;-2.624;2023-11-19T03:28:01;32.60;;;5.27;;
24147;SDS011;12309;51.450;-2.624;2023-11-19T03:30:28;25.97;;;4.13;;
24147;SDS011;12309;51.450;-2.624;2023-11-19T03:32:55;29.27;;;4.10;;
24147;SDS011;12309;51.450;-2.624;2023-11-19T03:35:21;24.33;;;4.27;;
24147;SDS011;12309;51.450;-2.624;2023-11-19T03:37:47;35.43;;;4.03;;
24147;SDS011;12309;51.450;-2.624;2023-11-19T03:40:13;26.80;;;4.30;;
24147;SDS011;12309;51.450;-2.624;2023-11-19T03:42:39;23.63;;;4.00;;
24147;SDS011;12309;51.450;-2.624;2023-11-19T03:45:08;24.00;;;4.23;;
24147;SDS011;12309;51.450;-2.624;2023-11-19T03:47:34;27.77;;;4.23;;
24147;SDS011;12309;51.450;-2.624;2023-11-19T03:50:01;28.47;;;4.30;;
24147;SDS011;12309;51.450;-2.624;2023-11-19T03:52:27;23.57;;;4.00;;
24147;SDS011;12309;51.450;-2.624;2023-11-19T03:54:54;23.93;;;3.60;;
24147;SDS011;12309;51.450;-2.624;2023-11-19T03:57:20;18.10;;;3.80;;
24147;SDS011;12309;51.450;-2.624;2023-11-19T03:59:46;21.50;;;3.20;;
24147;SDS011;12309;51.450;-2.624;2023-11-19T04:02:12;19.03;;;3.33;;
24147;SDS011;12309;51.450;-2.624;2023-11-19T04:04:38;14.90;;;2.60;;
24147;SDS011;12309;51.450;-2.624;2023-11-19T04:07:04;14.97;;;2.70;;
24147;SDS011;12309;51.450;-2.624;2023-11-19T04:09:30;15.97;;;2.93;;
24147;SDS011;12309;51.450;-2.624;2023-11-19T04:11:58;14.10;;;2.70;;
24147;SDS011;12309;51.450;-2.624;2023-11-19T04:14:24;13.53;;;2.20;;
24147;SDS011;12309;51.450;-2.624;2023-11-19T04:16:51;8.70;;;1.60;;
24147;SDS011;12309;51.450;-2.624;2023-11-19T04:19:17;16.23;;;2.83;;
24147;SDS011;12309;51.450;-2.624;2023-11-19T04:21:44;16.47;;;2.10;;
24147;SDS011;12309;51.450;-2.624;2023-11-19T04:24:10;19.60;;;2.30;;
24147;SDS011;12309;51.450;-2.624;2023-11-19T04:26:40;16.20;;;2.40;;
24147;SDS011;12309;51.450;-2.624;2023-11-19T04:29:08;13.80;;;1.70;;
24147;SDS011;12309;51.450;-2.624;2023-11-19T04:31:34;21.73;;;3.10;;
24147;SDS011;12309;51.450;-2.624;2023-11-19T04:34:00;12.60;;;1.90;;
24147;SDS011;12309;51.450;-2.624;2023-11-19T04:36:26;16.80;;;3.57;;
24147;SDS011;12309;51.450;-2.624;2023-11-19T04:38:52;15.07;;;3.17;;
24147;SDS011;12309;51.450;-2.624;2023-11-19T04:41:18;19.33;;;4.00;;
24147;SDS011;12309;51.450;-2.624;2023-11-19T04:43:43;15.20;;;2.77;;
24147;SDS011;12309;51.450;-2.624;2023-11-19T04:46:09;10.80;;;2.43;;
24147;SDS011;12309;51.450;-2.624;2023-11-19T04:48:35;13.80;;;2.77;;
24147;SDS011;12309;51.450;-2.624;2023-11-19T04:51:00;12.27;;;2.33;;
24147;SDS011;12309;51.450;-2.624;2023-11-19T04:53:26;18.37;;;3.40;;
24147;SDS011;12309;51.450;-2.624;2023-11-19T04:55:51;18.57;;;3.37;;
24147;SDS011;12309;51.450;-2.624;2023-11-19T04:58:17;15.30;;;3.10;;
24147;SDS011;12309;51.450;-2.624;2023-11-19T05:00:44;19.97;;;3.37;;
24147;SDS011;12309;51.450;-2.624;2023-11-19T05:03:10;19.73;;;2.93;;
24147;SDS011;12309;51.450;-2.624;2023-11-19T05:05:36;15.40;;;3.20;;
24147;SDS011;12309;51.450;-2.624;2023-11-19T05:08:02;17.60;;;2.93;;
24147;SDS011;12309;51.450;-2.624;2023-11-19T05:10:27;14.43;;;2.70;;
24147;SDS011;12309;51.450;-2.624;2023-11-19T05:12:53;15.30;;;2.77;;
24147;SDS011;12309;51.450;-2.624;2023-11-19T05:15:21;13.97;;;2.87;;
24147;SDS011;12309;51.450;-2.624;2023-11-19T05:17:47;15.60;;;2.87;;
24147;SDS011;12309;51.450;-2.624;2023-11-19T05:20:13;18.00;;;3.10;;
24147;SDS011;12309;51.450;-2.624;2023-11-19T05:22:41;23.87;;;3.27;;
24147;SDS011;12309;51.450;-2.624;2023-11-19T05:25:07;12.67;;;2.20;;
24147;SDS011;12309;51.450;-2.624;2023-11-19T05:27:34;18.60;;;2.90;;
24147;SDS011;12309;51.450;-2.624;2023-11-19T05:30:01;21.73;;;3.70;;
24147;SDS011;12309;51.450;-2.624;2023-11-19T05:32:27;27.60;;;4.20;;
24147;SDS011;12309;51.450;-2.624;2023-11-19T05:34:53;18.53;;;3.63;;
24147;SDS011;12309;51.450;-2.624;2023-11-19T05:37:18;29.23;;;4.10;;
24147;SDS011;12309;51.450;-2.624;2023-11-19T05:39:44;16.70;;;3.03;;
24147;SDS011;12309;51.450;-2.624;2023-11-19T05:42:10;24.27;;;3.17;;
24147;SDS011;12309;51.450;-2.624;2023-11-19T05:44:36;16.27;;;3.27;;
24147;SDS011;12309;51.450;-2.624;2023-11-19T05:47:02;17.80;;;3.30;;
24147;SDS011;12309;51.450;-2.624;2023-11-19T05:49:28;21.67;;;3.43;;
24147;SDS011;12309;51.450;-2.624;2023-11-19T05:51:54;24.00;;;3.67;;
24147;SDS011;12309;51.450;-2.624;2023-11-19T05:54:21;25.17;;;3.80;;
24147;SDS011;12309;51.450;-2.624;2023-11-19T05:56:47;18.23;;;3.73;;
24147;SDS011;12309;51.450;-2.624;2023-11-19T05:59:14;18.13;;;3.23;;
24147;SDS011;12309;51.450;-2.624;2023-11-19T06:01:42;24.33;;;4.00;;
24147;SDS011;12309;51.450;-2.624;2023-11-19T06:04:08;27.07;;;4.23;;
24147;SDS011;12309;51.450;-2.624;2023-11-19T06:06:34;21.77;;;3.20;;
24147;SDS011;12309;51.450;-2.624;2023-11-19T06:08:59;21.03;;;3.40;;
24147;SDS011;12309;51.450;-2.624;2023-11-19T06:11:28;20.40;;;3.43;;
24147;SDS011;12309;51.450;-2.624;2023-11-19T06:13:53;29.57;;;4.07;;
24147;SDS011;12309;51.450;-2.624;2023-11-19T06:16:19;17.40;;;3.13;;
24147;SDS011;12309;51.450;-2.624;2023-11-19T06:18:45;25.60;;;3.77;;
24147;SDS011;12309;51.450;-2.624;2023-11-19T06:21:11;22.53;;;3.63;;
24147;SDS011;12309;51.450;-2.624;2023-11-19T06:23:37;19.30;;;3.57;;
24147;SDS011;12309;51.450;-2.624;2023-11-19T06:26:03;21.07;;;3.47;;
24147;SDS011;12309;51.450;-2.624;2023-11-19T06:28:30;24.47;;;3.17;;
24147;SDS011;12309;51.450;-2.624;2023-11-19T06:30:56;26.30;;;3.63;;
24147;SDS011;12309;51.450;-2.624;2023-11-19T06:33:23;18.90;;;3.23;;
24147;SDS011;12309;51.450;-2.624;2023-11-19T06:35:49;18.50;;;2.70;;
24147;SDS011;12309;51.450;-2.624;2023-11-19T06:38:14;21.50;;;3.20;;
24147;SDS011;12309;51.450;-2.624;2023-11-19T06:40:40;19.33;;;3.10;;
24147;SDS011;12309;51.450;-2.624;2023-11-19T06:43:06;16.77;;;2.70;;
24147;SDS011;12309;51.450;-2.624;2023-11-19T06:45:34;25.57;;;4.23;;
24147;SDS011;12309;51.450;-2.624;2023-11-19T06:48:03;21.40;;;3.97;;
24147;SDS011;12309;51.450;-2.624;2023-11-19T06:50:29;28.57;;;3.67;;
24147;SDS011;12309;51.450;-2.624;2023-11-19T06:52:56;20.17;;;3.13;;
24147;SDS011;12309;51.450;-2.624;2023-11-19T06:55:21;27.20;;;3.97;;
24147;SDS011;12309;51.450;-2.624;2023-11-19T06:57:47;15.53;;;3.10;;
24147;SDS011;12309;51.450;-2.624;2023-11-19T07:00:13;23.40;;;3.77;;
24147;SDS011;12309;51.450;-2.624;2023-11-19T07:02:38;26.03;;;3.03;;
24147;SDS011;12309;51.450;-2.624;2023-11-19T07:05:04;20.93;;;3.20;;
24147;SDS011;12309;51.450;-2.624;2023-11-19T07:07:31;15.90;;;2.67;;
24147;SDS011;12309;51.450;-2.624;2023-11-19T07:09:57;21.80;;;3.07;;
24147;SDS011;12309;51.450;-2.624;2023-11-19T07:12:23;18.70;;;2.73;;
24147;SDS011;12309;51.450;-2.624;2023-11-19T07:14:51;17.30;;;2.83;;
24147;SDS011;12309;51.450;-2.624;2023-11-19T07:17:18;17.80;;;2.77;;
24147;SDS011;12309;51.450;-2.624;2023-11-19T07:19:45;22.20;;;2.07;;
24147;SDS011;12309;51.450;-2.624;2023-11-19T07:22:11;16.37;;;2.37;;
24147;SDS011;12309;51.450;-2.624;2023-11-19T07:24:38;16.90;;;2.77;;
24147;SDS011;12309;51.450;-2.624;2023-11-19T07:27:05;15.37;;;2.60;;
24147;SDS011;12309;51.450;-2.624;2023-11-19T07:29:31;19.13;;;3.33;;
24147;SDS011;12309;51.450;-2.624;2023-11-19T07:31:57;15.43;;;3.23;;
24147;SDS011;12309;51.450;-2.624;2023-11-19T07:34:22;16.53;;;2.87;;
24147;SDS011;12309;51.450;-2.624;2023-11-19T07:36:49;16.20;;;3.00;;
24147;SDS011;12309;51.450;-2.624;2023-11-19T07:39:15;14.87;;;2.73;;
24147;SDS011;12309;51.450;-2.624;2023-11-19T07:41:41;17.43;;;3.27;;
24147;SDS011;12309;51.450;-2.624;2023-11-19T07:44:06;17.50;;;2.97;;
24147;SDS011;12309;51.450;-2.624;2023-11-19T07:46:32;18.90;;;2.50;;
24147;SDS011;12309;51.450;-2.624;2023-11-19T07:48:58;13.70;;;2.40;;
24147;SDS011;12309;51.450;-2.624;2023-11-19T07:51:24;18.77;;;3.03;;
24147;SDS011;12309;51.450;-2.624;2023-11-19T07:53:49;20.80;;;3.27;;
24147;SDS011;12309;51.450;-2.624;2023-11-19T07:56:15;23.07;;;3.60;;
24147;SDS011;12309;51.450;-2.624;2023-11-19T07:58:40;18.57;;;3.20;;
24147;SDS011;12309;51.450;-2.624;2023-11-19T08:01:06;20.00;;;3.33;;
24147;SDS011;12309;51.450;-2.624;2023-11-19T08:03:32;19.13;;;3.53;;
24147;SDS011;12309;51.450;-2.624;2023-11-19T08:05:59;18.60;;;2.63;;
24147;SDS011;12309;51.450;-2.624;2023-11-19T08:08:25;20.03;;;3.40;;
24147;SDS011;12309;51.450;-2.624;2023-11-19T08:10:50;26.90;;;2.90;;
24147;SDS011;12309;51.450;-2.624;2023-11-19T08:13:19;23.70;;;3.00;;
24147;SDS011;12309;51.450;-2.624;2023-11-19T08:15:45;27.00;;;3.47;;
24147;SDS011;12309;51.450;-2.624;2023-11-19T08:18:12;25.10;;;3.87;;
24147;SDS011;12309;51.450;-2.624;2023-11-19T08:20:38;22.80;;;3.57;;
24147;SDS011;12309;51.450;-2.624;2023-11-19T08:23:04;21.57;;;3.30;;
24147;SDS011;12309;51.450;-2.624;2023-11-19T08:25:30;24.50;;;3.60;;
24147;SDS011;12309;51.450;-2.624;2023-11-19T08:27:55;27.87;;;3.70;;
24147;SDS011;12309;51.450;-2.624;2023-11-19T08:30:21;28.70;;;3.83;;
24147;SDS011;12309;51.450;-2.624;2023-11-19T08:32:48;27.70;;;3.33;;
24147;SDS011;12309;51.450;-2.624;2023-11-19T08:35:14;26.23;;;3.97;;
24147;SDS011;12309;51.450;-2.624;2023-11-19T08:37:41;15.20;;;3.07;;
24147;SDS011;12309;51.450;-2.624;2023-11-19T08:40:07;21.07;;;3.60;;
24147;SDS011;12309;51.450;-2.624;2023-11-19T08:42:33;22.10;;;3.43;;
24147;SDS011;12309;51.450;-2.624;2023-11-19T08:44:58;23.93;;;3.20;;
24147;SDS011;12309;51.450;-2.624;2023-11-19T08:47:24;19.37;;;3.40;;
24147;SDS011;12309;51.450;-2.624;2023-11-19T08:49:50;23.87;;;3.63;;
24147;SDS011;12309;51.450;-2.624;2023-11-19T08:52:17;30.07;;;3.80;;
24147;SDS011;12309;51.450;-2.624;2023-11-19T08:54:43;19.57;;;3.53;;
24147;SDS011;12309;51.450;-2.624;2023-11-19T08:57:08;23.13;;;4.23;;
24147;SDS011;12309;51.450;-2.624;2023-11-19T08:59:34;17.27;;;2.90;;
24147;SDS011;12309;51.450;-2.624;2023-11-19T09:02:02;16.30;;;2.77;;
24147;SDS011;12309;51.450;-2.624;2023-11-19T09:04:29;22.70;;;3.40;;
24147;SDS011;12309;51.450;-2.624;2023-11-19T09:06:54;17.60;;;2.60;;
24147;SDS011;12309;51.450;-2.624;2023-11-19T09:09:20;22.50;;;3.67;;
24147;SDS011;12309;51.450;-2.624;2023-11-19T09:11:46;25.27;;;3.57;;
24147;SDS011;12309;51.450;-2.624;2023-11-19T09:14:12;18.13;;;3.27;;
24147;SDS011;12309;51.450;-2.624;2023-11-19T09:16:37;15.27;;;2.67;;
24147;SDS011;12309;51.450;-2.624;2023-11-19T09:19:03;18.30;;;2.47;;
24147;SDS011;12309;51.450;-2.624;2023-11-19T09:21:29;21.90;;;3.10;;
24147;SDS011;12309;51.450;-2.624;2023-11-19T09:23:55;18.97;;;3.03;;
24147;SDS011;12309;51.450;-2.624;2023-11-19T09:26:20;15.73;;;3.27;;
24147;SDS011;12309;51.450;-2.624;2023-11-19T09:28:46;22.80;;;3.57;;
24147;SDS011;12309;51.450;-2.624;2023-11-19T09:31:15;15.77;;;2.77;;
24147;SDS011;12309;51.450;-2.624;2023-11-19T09:33:41;22.03;;;3.33;;
24147;SDS011;12309;51.450;-2.624;2023-11-19T09:36:07;22.43;;;3.13;;
24147;SDS011;12309;51.450;-2.624;2023-11-19T09:38:33;20.33;;;2.80;;
24147;SDS011;12309;51.450;-2.624;2023-11-19T09:41:03;18.73;;;2.60;;
24147;SDS011;12309;51.450;-2.624;2023-11-19T09:43:33;15.57;;;2.90;;
24147;SDS011;12309;51.450;-2.624;2023-11-19T09:45:59;17.80;;;3.17;;
24147;SDS011;12309;51.450;-2.624;2023-11-19T09:48:32;5.47;;;1.23;;
24147;SDS011;12309;51.450;-2.624;2023-11-19T09:51:00;23.63;;;2.87;;
24147;SDS011;12309;51.450;-2.624;2023-11-19T09:53:27;16.77;;;2.57;;
24147;SDS011;12309;51.450;-2.624;2023-11-19T09:55:53;15.20;;;2.30;;
24147;SDS011;12309;51.450;-2.624;2023-11-19T09:58:20;18.00;;;2.40;;
24147;SDS011;12309;51.450;-2.624;2023-11-19T10:00:45;17.67;;;2.83;;
24147;SDS011;12309;51.450;-2.624;2023-11-19T10:03:13;10.37;;;2.43;;
24147;SDS011;12309;51.450;-2.624;2023-11-19T10:05:39;18.50;;;2.70;;
24147;SDS011;12309;51.450;-2.624;2023-11-19T10:08:05;9.17;;;1.27;;
24147;SDS011;12309;51.450;-2.624;2023-11-19T10:10:32;16.30;;;2.50;;
24147;SDS011;12309;51.450;-2.624;2023-11-19T10:12:59;20.10;;;2.83;;
24147;SDS011;12309;51.450;-2.624;2023-11-19T10:15:25;16.80;;;2.70;;
24147;SDS011;12309;51.450;-2.624;2023-11-19T10:17:52;12.63;;;3.07;;
24147;SDS011;12309;51.450;-2.624;2023-11-19T10:20:20;20.30;;;3.10;;
24147;SDS011;12309;51.450;-2.624;2023-11-19T10:22:46;18.70;;;2.80;;
24147;SDS011;12309;51.450;-2.624;2023-11-19T10:25:27;14.77;;;2.73;;
24147;SDS011;12309;51.450;-2.624;2023-11-19T10:27:54;9.83;;;1.97;;
24147;SDS011;12309;51.450;-2.624;2023-11-19T10:30:21;10.03;;;1.77;;
24147;SDS011;12309;51.450;-2.624;2023-11-19T10:35:29;16.90;;;2.80;;
24147;SDS011;12309;51.450;-2.624;2023-11-19T10:37:55;9.53;;;2.00;;
24147;SDS011;12309;51.450;-2.624;2023-11-19T10:40:20;15.33;;;2.40;;
24147;SDS011;12309;51.450;-2.624;2023-11-19T10:42:47;12.37;;;2.47;;
24147;SDS011;12309;51.450;-2.624;2023-11-19T10:45:21;15.03;;;1.90;;
24147;SDS011;12309;51.450;-2.624;2023-11-19T10:47:48;11.07;;;2.37;;
24147;SDS011;12309;51.450;-2.624;2023-11-19T10:50:16;18.47;;;2.80;;
24147;SDS011;12309;51.450;-2.624;2023-11-19T10:52:42;8.17;;;1.10;;
24147;SDS011;12309;51.450;-2.624;2023-11-19T10:55:11;10.73;;;1.70;;
24147;SDS011;12309;51.450;-2.624;2023-11-19T10:57:42;14.67;;;1.90;;
24147;SDS011;12309;51.450;-2.624;2023-11-19T11:00:11;8.83;;;1.60;;
24147;SDS011;12309;51.450;-2.624;2023-11-19T11:02:44;14.70;;;2.13;;
24147;SDS011;12309;51.450;-2.624;2023-11-19T11:05:13;17.03;;;2.40;;
24147;SDS011;12309;51.450;-2.624;2023-11-19T11:07:40;3.60;;;0.90;;
24147;SDS011;12309;51.450;-2.624;2023-11-19T11:10:06;10.30;;;2.27;;
24147;SDS011;12309;51.450;-2.624;2023-11-19T11:12:35;7.13;;;1.77;;
24147;SDS011;12309;51.450;-2.624;2023-11-19T11:15:03;7.73;;;1.23;;
24147;SDS011;12309;51.450;-2.624;2023-11-19T11:17:30;10.83;;;1.87;;
24147;SDS011;12309;51.450;-2.624;2023-11-19T11:19:58;7.23;;;1.40;;
24147;SDS011;12309;51.450;-2.624;2023-11-19T11:22:24;10.17;;;1.60;;
24147;SDS011;12309;51.450;-2.624;2023-11-19T11:24:59;8.77;;;1.77;;
24147;SDS011;12309;51.450;-2.624;2023-11-19T11:38:23;8.50;;;1.20;;
24147;SDS011;12309;51.450;-2.624;2023-11-19T11:49:01;6.33;;;1.20;;
24147;SDS011;12309;51.450;-2.624;2023-11-19T11:56:37;6.13;;;0.77;;
24147;SDS011;12309;51.450;-2.624;2023-11-19T11:59:03;3.57;;;0.77;;
24147;SDS011;12309;51.450;-2.624;2023-11-19T12:01:59;1.87;;;0.50;;
24147;SDS011;12309;51.450;-2.624;2023-11-19T12:04:26;2.73;;;0.47;;
24147;SDS011;12309;51.450;-2.624;2023-11-19T12:07:02;6.83;;;1.20;;
24147;SDS011;12309;51.450;-2.624;2023-11-19T12:09:28;5.97;;;0.90;;
24147;SDS011;12309;51.450;-2.624;2023-11-19T12:12:06;4.80;;;0.83;;
24147;SDS011;12309;51.450;-2.624;2023-11-19T12:20:05;7.67;;;0.87;;
24147;SDS011;12309;51.450;-2.624;2023-11-19T12:22:40;5.57;;;1.00;;
24147;SDS011;12309;51.450;-2.624;2023-11-19T12:25:09;2.37;;;0.47;;
24147;SDS011;12309;51.450;-2.624;2023-11-19T12:27:40;4.67;;;0.63;;
24147;SDS011;12309;51.450;-2.624;2023-11-19T12:30:07;3.00;;;0.60;;
24147;SDS011;12309;51.450;-2.624;2023-11-19T12:32:40;4.53;;;1.00;;
24147;SDS011;12309;51.450;-2.624;2023-11-19T12:35:07;3.47;;;0.93;;
24147;SDS011;12309;51.450;-2.624;2023-11-19T12:37:54;4.97;;;1.17;;
24147;SDS011;12309;51.450;-2.624;2023-11-19T12:40:23;5.17;;;0.70;;
24147;SDS011;12309;51.450;-2.624;2023-11-19T12:42:53;6.67;;;1.40;;
24147;SDS011;12309;51.450;-2.624;2023-11-19T12:45:19;8.03;;;1.20;;
24147;SDS011;12309;51.450;-2.624;2023-11-19T12:47:47;8.37;;;1.60;;
24147;SDS011;12309;51.450;-2.624;2023-11-19T12:50:14;9.17;;;2.03;;
24147;SDS011;12309;51.450;-2.624;2023-11-19T12:52:42;7.80;;;1.17;;
24147;SDS011;12309;51.450;-2.624;2023-11-19T12:55:30;15.27;;;2.50;;
24147;SDS011;12309;51.450;-2.624;2023-11-19T12:57:57;12.00;;;2.57;;
24147;SDS011;12309;51.450;-2.624;2023-11-19T13:00:24;11.87;;;2.43;;
24147;SDS011;12309;51.450;-2.624;2023-11-19T13:02:52;10.03;;;2.23;;
24147;SDS011;12309;51.450;-2.624;2023-11-19T13:05:28;14.67;;;2.53;;
24147;SDS011;12309;51.450;-2.624;2023-11-19T13:08:07;6.87;;;1.37;;
24147;SDS011;12309;51.450;-2.624;2023-11-19T13:13:20;7.93;;;1.77;;
24147;SDS011;12309;51.450;-2.624;2023-11-19T13:15:46;12.40;;;2.37;;
24147;SDS011;12309;51.450;-2.624;2023-11-19T13:18:12;12.83;;;2.47;;
24147;SDS011;12309;51.450;-2.624;2023-11-19T13:20:39;10.73;;;1.60;;
24147;SDS011;12309;51.450;-2.624;2023-11-19T13:23:05;15.75;;;3.25;;
24147;SDS011;12309;51.450;-2.624;2023-11-19T13:25:34;12.70;;;2.37;;
24147;SDS011;12309;51.450;-2.624;2023-11-19T13:27:59;12.10;;;2.70;;
24147;SDS011;12309;51.450;-2.624;2023-11-19T13:30:25;13.43;;;2.30;;
24147;SDS011;12309;51.450;-2.624;2023-11-19T13:32:51;12.40;;;2.70;;
24147;SDS011;12309;51.450;-2.624;2023-11-19T13:35:19;12.53;;;2.40;;
24147;SDS011;12309;51.450;-2.624;2023-11-19T13:37:45;29.93;;;7.17;;
24147;SDS011;12309;51.450;-2.624;2023-11-19T13:40:11;11.80;;;2.57;;
24147;SDS011;12309;51.450;-2.624;2023-11-19T13:42:43;15.83;;;2.93;;
24147;SDS011;12309;51.450;-2.624;2023-11-19T13:45:12;14.20;;;2.97;;
24147;SDS011;12309;51.450;-2.624;2023-11-19T13:47:39;15.37;;;3.27;;
24147;SDS011;12309;51.450;-2.624;2023-11-19T13:50:09;19.73;;;2.87;;
24147;SDS011;12309;51.450;-2.624;2023-11-19T13:52:40;18.97;;;3.30;;
24147;SDS011;12309;51.450;-2.624;2023-11-19T13:55:07;12.00;;;2.70;;
24147;SDS011;12309;51.450;-2.624;2023-11-19T13:57:34;24.23;;;3.40;;
24147;SDS011;12309;51.450;-2.624;2023-11-19T14:00:03;20.80;;;3.43;;
24147;SDS011;12309;51.450;-2.624;2023-11-19T14:02:31;19.27;;;3.22;;
24147;SDS011;12309;51.450;-2.624;2023-11-19T14:05:00;18.38;;;3.83;;
24147;SDS011;12309;51.450;-2.624;2023-11-19T14:07:25;22.88;;;3.47;;
24147;SDS011;12309;51.450;-2.624;2023-11-19T14:09:51;18.93;;;3.10;;
24147;SDS011;12309;51.450;-2.624;2023-11-19T14:12:17;19.37;;;4.87;;
24147;SDS011;12309;51.450;-2.624;2023-11-19T14:14:43;20.33;;;4.77;;
24147;SDS011;12309;51.450;-2.624;2023-11-19T14:17:08;19.50;;;4.60;;
24147;SDS011;12309;51.450;-2.624;2023-11-19T14:19:36;15.97;;;3.23;;
24147;SDS011;12309;51.450;-2.624;2023-11-19T14:22:03;31.77;;;7.70;;
24147;SDS011;12309;51.450;-2.624;2023-11-19T14:24:29;12.48;;;2.13;;
24147;SDS011;12309;51.450;-2.624;2023-11-19T14:26:54;21.13;;;3.60;;
24147;SDS011;12309;51.450;-2.624;2023-11-19T14:29:23;19.13;;;3.15;;
24147;SDS011;12309;51.450;-2.624;2023-11-19T14:31:48;14.05;;;3.00;;
24147;SDS011;12309;51.450;-2.624;2023-11-19T14:34:14;19.57;;;2.40;;
24147;SDS011;12309;51.450;-2.624;2023-11-19T14:36:40;25.43;;;3.37;;
24147;SDS011;12309;51.450;-2.624;2023-11-19T14:39:06;19.10;;;2.93;;
24147;SDS011;12309;51.450;-2.624;2023-11-19T14:41:32;25.27;;;3.97;;
24147;SDS011;12309;51.450;-2.624;2023-11-19T14:43:58;22.95;;;3.15;;
24147;SDS011;12309;51.450;-2.624;2023-11-19T14:46:23;15.40;;;3.13;;
24147;SDS011;12309;51.450;-2.624;2023-11-19T14:48:49;19.00;;;3.27;;
24147;SDS011;12309;51.450;-2.624;2023-11-19T14:51:15;21.83;;;2.83;;
24147;SDS011;12309;51.450;-2.624;2023-11-19T14:53:41;24.13;;;3.25;;
24147;SDS011;12309;51.450;-2.624;2023-11-19T14:56:09;18.23;;;3.30;;
24147;SDS011;12309;51.450;-2.624;2023-11-19T14:58:35;24.08;;;3.42;;